sensor_id;sensor_type;location;lat;lon;timestamp;temperature;humidity
28087;DHT22;15392;48.912;8.380;2023-04-19T00:00:39;16.90;48.00
28087;DHT22;15392;48.912;8.380;2023-04-19T00:03:08;16.90;48.00
28087;DHT22;15392;48.912;8.380;2023-04-19T00:05:35;16.90;48.00
28087;DHT22;15392;48.912;8.380;2023-04-19T00:08:03;16.90;48.10
28087;DHT22;15392;48.912;8.380;2023-04-19T00:10:30;16.90;48.10
28087;DHT22;15392;48.912;8.380;2023-04-19T00:12:56;16.90;48.10
28087;DHT22;15392;48.912;8.380;2023-04-19T00:15:22;16.90;48.20
28087;DHT22;15392;48.912;8.380;2023-04-19T00:17:48;16.90;48.20
28087;DHT22;15392;48.912;8.380;2023-04-19T00:20:13;16.80;48.20
28087;DHT22;15392;48.912;8.380;2023-04-19T00:22:39;16.80;48.20
28087;DHT22;15392;48.912;8.380;2023-04-19T00:25:05;16.80;48.10
28087;DHT22;15392;48.912;8.380;2023-04-19T00:27:32;16.80;48.20
28087;DHT22;15392;48.912;8.380;2023-04-19T00:29:57;16.80;48.20
28087;DHT22;15392;48.912;8.380;2023-04-19T00:32:23;16.80;48.20
28087;DHT22;15392;48.912;8.380;2023-04-19T00:34:49;16.80;48.20
28087;DHT22;15392;48.912;8.380;2023-04-19T00:37:15;16.80;48.20
28087;DHT22;15392;48.912;8.380;2023-04-19T00:39:41;16.80;48.20
28087;DHT22;15392;48.912;8.380;2023-04-19T00:42:06;16.80;48.20
28087;DHT22;15392;48.912;8.380;2023-04-19T00:44:32;16.80;48.20
28087;DHT22;15392;48.912;8.380;2023-04-19T00:46:59;16.70;48.20
28087;DHT22;15392;48.912;8.380;2023-04-19T00:49:26;16.70;48.20
28087;DHT22;15392;48.912;8.380;2023-04-19T00:51:52;16.70;48.20
28087;DHT22;15392;48.912;8.380;2023-04-19T00:54:19;16.70;48.20
28087;DHT22;15392;48.912;8.380;2023-04-19T00:56:45;16.60;48.30
28087;DHT22;15392;48.912;8.380;2023-04-19T00:59:12;16.60;48.20
28087;DHT22;15392;48.912;8.380;2023-04-19T01:01:39;16.60;48.30
28087;DHT22;15392;48.912;8.380;2023-04-19T01:04:06;16.60;48.30
28087;DHT22;15392;48.912;8.380;2023-04-19T01:06:33;16.60;48.30
28087;DHT22;15392;48.912;8.380;2023-04-19T01:09:00;16.50;48.20
28087;DHT22;15392;48.912;8.380;2023-04-19T01:11:26;16.50;48.30
28087;DHT22;15392;48.912;8.380;2023-04-19T01:13:54;16.50;48.30
28087;DHT22;15392;48.912;8.380;2023-04-19T01:16:20;16.50;48.40
28087;DHT22;15392;48.912;8.380;2023-04-19T01:18:46;16.40;48.30
28087;DHT22;15392;48.912;8.380;2023-04-19T01:21:12;16.40;48.40
28087;DHT22;15392;48.912;8.380;2023-04-19T01:23:37;16.40;48.50
28087;DHT22;15392;48.912;8.380;2023-04-19T01:26:04;16.40;48.40
28087;DHT22;15392;48.912;8.380;2023-04-19T01:50:23;16.10;48.80
28087;DHT22;15392;48.912;8.380;2023-04-19T01:52:49;16.00;48.60
28087;DHT22;15392;48.912;8.380;2023-04-19T01:55:15;16.00;48.70
28087;DHT22;15392;48.912;8.380;2023-04-19T01:57:41;16.00;48.70
28087;DHT22;15392;48.912;8.380;2023-04-19T02:00:10;16.00;48.70
28087;DHT22;15392;48.912;8.380;2023-04-19T02:02:37;16.00;48.80
28087;DHT22;15392;48.912;8.380;2023-04-19T02:05:05;16.00;48.90
28087;DHT22;15392;48.912;8.380;2023-04-19T02:07:31;15.90;48.80
28087;DHT22;15392;48.912;8.380;2023-04-19T02:09:57;15.90;48.80
28087;DHT22;15392;48.912;8.380;2023-04-19T02:12:26;15.90;48.80
28087;DHT22;15392;48.912;8.380;2023-04-19T02:14:59;15.90;48.90
28087;DHT22;15392;48.912;8.380;2023-04-19T02:17:26;15.90;48.90
28087;DHT22;15392;48.912;8.380;2023-04-19T02:19:53;15.90;48.90
28087;DHT22;15392;48.912;8.380;2023-04-19T02:22:19;15.90;48.90
28087;DHT22;15392;48.912;8.380;2023-04-19T02:24:45;15.90;48.90
28087;DHT22;15392;48.912;8.380;2023-04-19T02:27:12;15.80;48.90
28087;DHT22;15392;48.912;8.380;2023-04-19T02:29:41;15.90;48.90
28087;DHT22;15392;48.912;8.380;2023-04-19T02:32:06;15.90;49.10
28087;DHT22;15392;48.912;8.380;2023-04-19T02:34:33;15.80;49.00
28087;DHT22;15392;48.912;8.380;2023-04-19T02:36:59;15.90;49.00
28087;DHT22;15392;48.912;8.380;2023-04-19T02:39:25;15.90;48.90
28087;DHT22;15392;48.912;8.380;2023-04-19T02:41:51;15.90;48.90
28087;DHT22;15392;48.912;8.380;2023-04-19T02:44:17;15.90;48.90
28087;DHT22;15392;48.912;8.380;2023-04-19T02:46:50;15.90;48.90
28087;DHT22;15392;48.912;8.380;2023-04-19T02:49:17;15.90;49.10
28087;DHT22;15392;48.912;8.380;2023-04-19T02:51:43;15.90;48.90
28087;DHT22;15392;48.912;8.380;2023-04-19T02:54:11;15.80;48.80
28087;DHT22;15392;48.912;8.380;2023-04-19T02:56:37;15.90;49.00
28087;DHT22;15392;48.912;8.380;2023-04-19T02:59:03;15.90;49.00
28087;DHT22;15392;48.912;8.380;2023-04-19T03:01:29;15.90;49.00
28087;DHT22;15392;48.912;8.380;2023-04-19T03:03:55;15.90;49.00
28087;DHT22;15392;48.912;8.380;2023-04-19T03:06:21;15.80;49.00
28087;DHT22;15392;48.912;8.380;2023-04-19T03:08:47;15.90;49.00
28087;DHT22;15392;48.912;8.380;2023-04-19T03:11:15;15.90;49.00
28087;DHT22;15392;48.912;8.380;2023-04-19T03:13:41;15.90;49.00
28087;DHT22;15392;48.912;8.380;2023-04-19T03:16:07;15.90;48.90
28087;DHT22;15392;48.912;8.380;2023-04-19T03:18:34;15.90;49.00
28087;DHT22;15392;48.912;8.380;2023-04-19T03:21:01;15.80;49.00
28087;DHT22;15392;48.912;8.380;2023-04-19T03:23:28;15.80;49.00
28087;DHT22;15392;48.912;8.380;2023-04-19T03:25:54;15.90;49.00
28087;DHT22;15392;48.912;8.380;2023-04-19T03:28:20;15.90;49.00
28087;DHT22;15392;48.912;8.380;2023-04-19T03:30:46;15.80;49.00
28087;DHT22;15392;48.912;8.380;2023-04-19T03:33:12;15.90;49.00
28087;DHT22;15392;48.912;8.380;2023-04-19T03:35:38;15.90;49.00
28087;DHT22;15392;48.912;8.380;2023-04-19T03:38:04;15.90;49.00
28087;DHT22;15392;48.912;8.380;2023-04-19T03:40:31;15.90;49.00
28087;DHT22;15392;48.912;8.380;2023-04-19T03:42:57;15.90;49.00
28087;DHT22;15392;48.912;8.380;2023-04-19T03:45:23;15.90;49.00
28087;DHT22;15392;48.912;8.380;2023-04-19T03:47:49;15.90;49.00
28087;DHT22;15392;48.912;8.380;2023-04-19T03:50:15;15.90;49.00
28087;DHT22;15392;48.912;8.380;2023-04-19T03:52:41;15.90;49.00
28087;DHT22;15392;48.912;8.380;2023-04-19T03:55:07;15.90;49.00
28087;DHT22;15392;48.912;8.380;2023-04-19T03:57:33;15.90;49.00
28087;DHT22;15392;48.912;8.380;2023-04-19T03:59:59;15.90;49.00
28087;DHT22;15392;48.912;8.380;2023-04-19T04:02:25;15.90;49.00
28087;DHT22;15392;48.912;8.380;2023-04-19T04:04:54;16.00;49.10
28087;DHT22;15392;48.912;8.380;2023-04-19T04:07:20;16.00;49.10
28087;DHT22;15392;48.912;8.380;2023-04-19T04:09:48;15.90;49.10
28087;DHT22;15392;48.912;8.380;2023-04-19T04:12:14;15.90;49.00
28087;DHT22;15392;48.912;8.380;2023-04-19T04:14:40;15.90;49.00
28087;DHT22;15392;48.912;8.380;2023-04-19T04:17:06;15.90;49.00
28087;DHT22;15392;48.912;8.380;2023-04-19T04:19:32;15.90;49.00
28087;DHT22;15392;48.912;8.380;2023-04-19T04:21:57;15.90;49.10
28087;DHT22;15392;48.912;8.380;2023-04-19T04:24:23;15.90;49.00
28087;DHT22;15392;48.912;8.380;2023-04-19T04:26:50;15.90;49.00
28087;DHT22;15392;48.912;8.380;2023-04-19T04:29:16;15.90;49.10
28087;DHT22;15392;48.912;8.380;2023-04-19T04:31:42;15.90;49.10
28087;DHT22;15392;48.912;8.380;2023-04-19T04:34:08;15.90;49.00
28087;DHT22;15392;48.912;8.380;2023-04-19T04:36:35;15.90;49.10
28087;DHT22;15392;48.912;8.380;2023-04-19T04:39:04;15.90;49.00
28087;DHT22;15392;48.912;8.380;2023-04-19T04:41:30;15.90;48.90
28087;DHT22;15392;48.912;8.380;2023-04-19T04:43:59;15.90;48.90
28087;DHT22;15392;48.912;8.380;2023-04-19T04:46:29;15.80;49.00
28087;DHT22;15392;48.912;8.380;2023-04-19T04:48:55;15.90;49.10
28087;DHT22;15392;48.912;8.380;2023-04-19T04:51:20;15.90;49.00
28087;DHT22;15392;48.912;8.380;2023-04-19T04:53:49;15.80;48.90
28087;DHT22;15392;48.912;8.380;2023-04-19T04:56:19;15.80;48.90
28087;DHT22;15392;48.912;8.380;2023-04-19T04:58:45;15.80;48.90
28087;DHT22;15392;48.912;8.380;2023-04-19T05:01:11;15.80;48.90
28087;DHT22;15392;48.912;8.380;2023-04-19T05:03:36;15.80;48.80
28087;DHT22;15392;48.912;8.380;2023-04-19T05:06:02;15.80;48.80
28087;DHT22;15392;48.912;8.380;2023-04-19T05:08:28;15.80;48.90
28087;DHT22;15392;48.912;8.380;2023-04-19T05:11:05;15.80;48.90
28087;DHT22;15392;48.912;8.380;2023-04-19T05:14:08;15.80;49.00
28087;DHT22;15392;48.912;8.380;2023-04-19T05:16:33;15.70;48.90
28087;DHT22;15392;48.912;8.380;2023-04-19T05:18:59;15.70;48.90
28087;DHT22;15392;48.912;8.380;2023-04-19T05:21:25;15.70;48.90
28087;DHT22;15392;48.912;8.380;2023-04-19T05:23:51;15.70;49.00
28087;DHT22;15392;48.912;8.380;2023-04-19T05:26:20;15.70;49.00
28087;DHT22;15392;48.912;8.380;2023-04-19T05:28:46;15.70;49.50
28087;DHT22;15392;48.912;8.380;2023-04-19T05:31:12;15.70;49.00
28087;DHT22;15392;48.912;8.380;2023-04-19T05:33:38;15.70;49.00
28087;DHT22;15392;48.912;8.380;2023-04-19T05:36:04;15.70;49.00
28087;DHT22;15392;48.912;8.380;2023-04-19T05:38:30;15.70;49.00
28087;DHT22;15392;48.912;8.380;2023-04-19T05:48:37;15.70;49.20
28087;DHT22;15392;48.912;8.380;2023-04-19T05:51:03;15.70;48.90
28087;DHT22;15392;48.912;8.380;2023-04-19T05:53:28;15.70;49.10
28087;DHT22;15392;48.912;8.380;2023-04-19T05:55:54;15.70;49.10
28087;DHT22;15392;48.912;8.380;2023-04-19T05:58:20;15.70;49.00
28087;DHT22;15392;48.912;8.380;2023-04-19T06:00:47;15.70;49.00
28087;DHT22;15392;48.912;8.380;2023-04-19T06:03:15;15.70;49.00
28087;DHT22;15392;48.912;8.380;2023-04-19T06:05:41;15.70;49.00
28087;DHT22;15392;48.912;8.380;2023-04-19T06:08:07;15.70;49.10
28087;DHT22;15392;48.912;8.380;2023-04-19T06:10:36;15.70;49.30
28087;DHT22;15392;48.912;8.380;2023-04-19T06:13:02;15.70;49.20
28087;DHT22;15392;48.912;8.380;2023-04-19T06:15:28;15.70;49.10
28087;DHT22;15392;48.912;8.380;2023-04-19T06:17:55;15.70;49.00
28087;DHT22;15392;48.912;8.380;2023-04-19T06:20:21;15.70;49.30
28087;DHT22;15392;48.912;8.380;2023-04-19T06:22:47;15.60;49.20
28087;DHT22;15392;48.912;8.380;2023-04-19T06:25:13;15.60;49.00
28087;DHT22;15392;48.912;8.380;2023-04-19T06:27:39;15.60;49.00
28087;DHT22;15392;48.912;8.380;2023-04-19T06:30:08;15.60;49.30
28087;DHT22;15392;48.912;8.380;2023-04-19T06:32:35;15.60;49.10
28087;DHT22;15392;48.912;8.380;2023-04-19T06:35:01;15.60;49.20
28087;DHT22;15392;48.912;8.380;2023-04-19T06:37:26;15.60;49.10
28087;DHT22;15392;48.912;8.380;2023-04-19T06:39:52;15.60;49.20
28087;DHT22;15392;48.912;8.380;2023-04-19T06:42:21;15.60;49.40
28087;DHT22;15392;48.912;8.380;2023-04-19T06:44:48;15.70;49.40
28087;DHT22;15392;48.912;8.380;2023-04-19T06:47:15;15.70;49.30
28087;DHT22;15392;48.912;8.380;2023-04-19T06:49:42;15.70;49.20
28087;DHT22;15392;48.912;8.380;2023-04-19T06:52:07;15.80;49.20
28087;DHT22;15392;48.912;8.380;2023-04-19T06:54:35;15.80;49.80
28087;DHT22;15392;48.912;8.380;2023-04-19T06:57:03;15.80;49.10
28087;DHT22;15392;48.912;8.380;2023-04-19T06:59:29;15.90;49.10
28087;DHT22;15392;48.912;8.380;2023-04-19T07:01:56;15.90;49.10
28087;DHT22;15392;48.912;8.380;2023-04-19T07:04:25;15.90;49.10
28087;DHT22;15392;48.912;8.380;2023-04-19T07:06:51;16.00;49.10
28087;DHT22;15392;48.912;8.380;2023-04-19T07:09:18;16.00;49.10
28087;DHT22;15392;48.912;8.380;2023-04-19T07:11:44;16.10;49.10
28087;DHT22;15392;48.912;8.380;2023-04-19T07:14:17;16.10;49.10
28087;DHT22;15392;48.912;8.380;2023-04-19T07:16:44;16.20;49.10
28087;DHT22;15392;48.912;8.380;2023-04-19T07:19:11;16.30;49.10
28087;DHT22;15392;48.912;8.380;2023-04-19T07:21:40;16.40;49.20
28087;DHT22;15392;48.912;8.380;2023-04-19T07:24:06;16.40;49.10
28087;DHT22;15392;48.912;8.380;2023-04-19T07:26:33;16.50;48.90
28087;DHT22;15392;48.912;8.380;2023-04-19T07:29:13;16.60;48.90
28087;DHT22;15392;48.912;8.380;2023-04-19T07:31:39;16.70;48.80
28087;DHT22;15392;48.912;8.380;2023-04-19T07:34:06;16.70;48.70
28087;DHT22;15392;48.912;8.380;2023-04-19T07:36:32;16.80;48.60
28087;DHT22;15392;48.912;8.380;2023-04-19T07:39:01;16.80;48.60
28087;DHT22;15392;48.912;8.380;2023-04-19T07:41:27;16.90;48.50
28087;DHT22;15392;48.912;8.380;2023-04-19T07:43:53;16.90;48.40
28087;DHT22;15392;48.912;8.380;2023-04-19T07:46:19;17.00;48.60
28087;DHT22;15392;48.912;8.380;2023-04-19T07:48:46;17.10;48.60
28087;DHT22;15392;48.912;8.380;2023-04-19T07:51:16;17.10;48.60
28087;DHT22;15392;48.912;8.380;2023-04-19T07:53:42;17.20;48.60
28087;DHT22;15392;48.912;8.380;2023-04-19T07:56:09;17.30;48.60
28087;DHT22;15392;48.912;8.380;2023-04-19T07:58:38;17.40;48.40
28087;DHT22;15392;48.912;8.380;2023-04-19T08:01:06;17.50;47.90
28087;DHT22;15392;48.912;8.380;2023-04-19T08:03:36;17.50;47.80
28087;DHT22;15392;48.912;8.380;2023-04-19T08:06:05;17.60;47.80
28087;DHT22;15392;48.912;8.380;2023-04-19T08:08:33;17.70;47.70
28087;DHT22;15392;48.912;8.380;2023-04-19T08:11:35;17.70;47.80
28087;DHT22;15392;48.912;8.380;2023-04-19T08:14:38;17.80;47.40
28087;DHT22;15392;48.912;8.380;2023-04-19T08:17:06;17.90;47.70
28087;DHT22;15392;48.912;8.380;2023-04-19T08:19:32;17.90;47.70
28087;DHT22;15392;48.912;8.380;2023-04-19T08:21:58;18.00;47.70
28087;DHT22;15392;48.912;8.380;2023-04-19T08:24:24;18.00;47.50
28087;DHT22;15392;48.912;8.380;2023-04-19T08:26:56;18.10;47.20
28087;DHT22;15392;48.912;8.380;2023-04-19T08:29:22;18.20;47.50
28087;DHT22;15392;48.912;8.380;2023-04-19T08:31:49;18.30;47.70
28087;DHT22;15392;48.912;8.380;2023-04-19T08:34:15;18.40;47.00
28087;DHT22;15392;48.912;8.380;2023-04-19T08:36:41;18.40;47.40
28087;DHT22;15392;48.912;8.380;2023-04-19T08:43:07;18.60;47.30
28087;DHT22;15392;48.912;8.380;2023-04-19T08:45:36;18.80;47.40
28087;DHT22;15392;48.912;8.380;2023-04-19T08:48:08;18.80;47.00
28087;DHT22;15392;48.912;8.380;2023-04-19T08:50:38;18.90;46.90
28087;DHT22;15392;48.912;8.380;2023-04-19T08:53:09;19.00;46.90
28087;DHT22;15392;48.912;8.380;2023-04-19T08:55:40;19.10;47.30
28087;DHT22;15392;48.912;8.380;2023-04-19T08:58:09;19.20;46.30
28087;DHT22;15392;48.912;8.380;2023-04-19T09:00:38;19.30;46.80
28087;DHT22;15392;48.912;8.380;2023-04-19T09:03:06;19.40;46.70
28087;DHT22;15392;48.912;8.380;2023-04-19T09:05:33;19.50;46.80
28087;DHT22;15392;48.912;8.380;2023-04-19T09:10:55;19.70;46.20
28087;DHT22;15392;48.912;8.380;2023-04-19T09:13:26;19.80;46.40
28087;DHT22;15392;48.912;8.380;2023-04-19T09:15:53;19.90;46.30
28087;DHT22;15392;48.912;8.380;2023-04-19T09:18:22;20.00;46.40
28087;DHT22;15392;48.912;8.380;2023-04-19T09:20:53;20.00;45.80
28087;DHT22;15392;48.912;8.380;2023-04-19T09:23:23;20.00;45.90
28087;DHT22;15392;48.912;8.380;2023-04-19T09:25:55;20.10;45.90
28087;DHT22;15392;48.912;8.380;2023-04-19T09:28:22;20.10;45.70
28087;DHT22;15392;48.912;8.380;2023-04-19T09:30:52;20.10;45.80
28087;DHT22;15392;48.912;8.380;2023-04-19T09:33:34;20.10;45.90
28087;DHT22;15392;48.912;8.380;2023-04-19T09:36:07;20.10;45.70
28087;DHT22;15392;48.912;8.380;2023-04-19T09:38:49;20.10;46.00
28087;DHT22;15392;48.912;8.380;2023-04-19T09:41:15;20.20;45.80
28087;DHT22;15392;48.912;8.380;2023-04-19T09:43:45;20.20;46.10
28087;DHT22;15392;48.912;8.380;2023-04-19T09:46:35;20.20;46.00
28087;DHT22;15392;48.912;8.380;2023-04-19T09:51:54;20.30;45.40
28087;DHT22;15392;48.912;8.380;2023-04-19T09:54:25;20.20;45.60
28087;DHT22;15392;48.912;8.380;2023-04-19T09:56:54;20.30;45.40
28087;DHT22;15392;48.912;8.380;2023-04-19T09:59:20;20.30;45.40
28087;DHT22;15392;48.912;8.380;2023-04-19T10:01:54;20.20;45.50
28087;DHT22;15392;48.912;8.380;2023-04-19T10:04:21;20.20;45.40
28087;DHT22;15392;48.912;8.380;2023-04-19T10:11:23;20.20;44.70
28087;DHT22;15392;48.912;8.380;2023-04-19T10:13:59;20.20;45.40
28087;DHT22;15392;48.912;8.380;2023-04-19T10:16:26;20.20;45.50
28087;DHT22;15392;48.912;8.380;2023-04-19T10:18:55;20.20;45.60
28087;DHT22;15392;48.912;8.380;2023-04-19T10:21:22;20.20;45.70
28087;DHT22;15392;48.912;8.380;2023-04-19T10:23:49;20.30;45.80
28087;DHT22;15392;48.912;8.380;2023-04-19T10:26:15;20.30;45.70
28087;DHT22;15392;48.912;8.380;2023-04-19T10:28:41;20.40;45.90
28087;DHT22;15392;48.912;8.380;2023-04-19T10:31:11;20.50;45.90
28087;DHT22;15392;48.912;8.380;2023-04-19T10:33:38;20.60;45.80
28087;DHT22;15392;48.912;8.380;2023-04-19T10:36:07;20.70;45.90
28087;DHT22;15392;48.912;8.380;2023-04-19T10:38:45;20.80;45.60
28087;DHT22;15392;48.912;8.380;2023-04-19T10:41:16;20.80;45.30
28087;DHT22;15392;48.912;8.380;2023-04-19T10:43:46;20.90;45.40
28087;DHT22;15392;48.912;8.380;2023-04-19T10:48:57;21.00;45.00
28087;DHT22;15392;48.912;8.380;2023-04-19T10:51:27;21.00;44.80
28087;DHT22;15392;48.912;8.380;2023-04-19T10:54:01;21.00;44.70
28087;DHT22;15392;48.912;8.380;2023-04-19T11:01:48;20.90;44.90
28087;DHT22;15392;48.912;8.380;2023-04-19T11:04:23;20.90;44.70
28087;DHT22;15392;48.912;8.380;2023-04-19T11:06:55;20.90;44.60
28087;DHT22;15392;48.912;8.380;2023-04-19T11:09:39;20.90;44.80
28087;DHT22;15392;48.912;8.380;2023-04-19T11:12:14;20.80;44.80
28087;DHT22;15392;48.912;8.380;2023-04-19T11:14:53;20.70;44.70
28087;DHT22;15392;48.912;8.380;2023-04-19T11:17:27;20.80;44.70
28087;DHT22;15392;48.912;8.380;2023-04-19T11:20:00;20.70;44.70
28087;DHT22;15392;48.912;8.380;2023-04-19T11:22:46;20.70;45.00
28087;DHT22;15392;48.912;8.380;2023-04-19T11:25:16;20.60;44.90
28087;DHT22;15392;48.912;8.380;2023-04-19T11:27:45;20.60;45.20
28087;DHT22;15392;48.912;8.380;2023-04-19T11:30:14;20.60;45.10
28087;DHT22;15392;48.912;8.380;2023-04-19T11:32:51;20.60;45.20
28087;DHT22;15392;48.912;8.380;2023-04-19T11:35:23;20.50;45.10
28087;DHT22;15392;48.912;8.380;2023-04-19T11:37:51;20.50;45.20
28087;DHT22;15392;48.912;8.380;2023-04-19T11:40:19;20.50;45.40
28087;DHT22;15392;48.912;8.380;2023-04-19T11:42:46;20.40;45.30
28087;DHT22;15392;48.912;8.380;2023-04-19T11:45:23;20.40;45.30
28087;DHT22;15392;48.912;8.380;2023-04-19T11:47:51;20.40;45.10
28087;DHT22;15392;48.912;8.380;2023-04-19T11:50:36;20.30;45.40
28087;DHT22;15392;48.912;8.380;2023-04-19T11:53:16;20.30;45.10
28087;DHT22;15392;48.912;8.380;2023-04-19T11:55:56;20.30;45.30
28087;DHT22;15392;48.912;8.380;2023-04-19T12:01:14;20.20;45.60
28087;DHT22;15392;48.912;8.380;2023-04-19T12:03:52;20.20;45.50
28087;DHT22;15392;48.912;8.380;2023-04-19T12:06:24;20.10;45.50
28087;DHT22;15392;48.912;8.380;2023-04-19T12:08:53;20.10;45.40
28087;DHT22;15392;48.912;8.380;2023-04-19T12:11:24;20.00;45.60
28087;DHT22;15392;48.912;8.380;2023-04-19T12:14:11;20.00;45.50
28087;DHT22;15392;48.912;8.380;2023-04-19T12:16:38;20.00;45.30
28087;DHT22;15392;48.912;8.380;2023-04-19T12:19:16;19.90;45.70
28087;DHT22;15392;48.912;8.380;2023-04-19T12:21:44;19.90;45.60
28087;DHT22;15392;48.912;8.380;2023-04-19T12:24:13;19.80;45.90
28087;DHT22;15392;48.912;8.380;2023-04-19T12:26:55;19.80;46.10
28087;DHT22;15392;48.912;8.380;2023-04-19T12:29:21;19.70;46.20
28087;DHT22;15392;48.912;8.380;2023-04-19T12:31:47;19.70;46.50
28087;DHT22;15392;48.912;8.380;2023-04-19T12:34:13;19.70;46.70
28087;DHT22;15392;48.912;8.380;2023-04-19T12:36:39;19.60;46.80
28087;DHT22;15392;48.912;8.380;2023-04-19T12:39:04;19.60;46.80
28087;DHT22;15392;48.912;8.380;2023-04-19T12:41:32;19.60;46.90
28087;DHT22;15392;48.912;8.380;2023-04-19T12:43:57;19.50;46.90
28087;DHT22;15392;48.912;8.380;2023-04-19T12:46:23;19.50;47.00
28087;DHT22;15392;48.912;8.380;2023-04-19T12:48:52;19.40;47.10
28087;DHT22;15392;48.912;8.380;2023-04-19T12:51:18;19.40;47.20
28087;DHT22;15392;48.912;8.380;2023-04-19T12:53:51;19.40;47.30
28087;DHT22;15392;48.912;8.380;2023-04-19T12:56:17;19.30;47.50
28087;DHT22;15392;48.912;8.380;2023-04-19T12:58:43;19.20;47.40
28087;DHT22;15392;48.912;8.380;2023-04-19T13:01:09;19.20;47.50
28087;DHT22;15392;48.912;8.380;2023-04-19T13:03:35;19.20;47.60
28087;DHT22;15392;48.912;8.380;2023-04-19T13:06:03;19.10;47.60
28087;DHT22;15392;48.912;8.380;2023-04-19T13:08:29;19.00;48.20
28087;DHT22;15392;48.912;8.380;2023-04-19T13:10:55;19.00;47.50
28087;DHT22;15392;48.912;8.380;2023-04-19T13:13:21;18.90;47.50
28087;DHT22;15392;48.912;8.380;2023-04-19T13:15:47;18.90;47.60
28087;DHT22;15392;48.912;8.380;2023-04-19T13:18:12;18.80;47.60
28087;DHT22;15392;48.912;8.380;2023-04-19T13:20:38;18.80;47.80
28087;DHT22;15392;48.912;8.380;2023-04-19T13:23:07;18.70;47.90
28087;DHT22;15392;48.912;8.380;2023-04-19T13:25:32;18.60;48.00
28087;DHT22;15392;48.912;8.380;2023-04-19T13:27:58;18.60;48.10
28087;DHT22;15392;48.912;8.380;2023-04-19T13:30:24;18.60;48.30
28087;DHT22;15392;48.912;8.380;2023-04-19T13:32:54;18.50;48.40
28087;DHT22;15392;48.912;8.380;2023-04-19T13:35:23;18.50;48.50
28087;DHT22;15392;48.912;8.380;2023-04-19T13:37:49;18.40;48.60
28087;DHT22;15392;48.912;8.380;2023-04-19T13:40:15;18.40;48.60
28087;DHT22;15392;48.912;8.380;2023-04-19T13:42:41;18.40;48.70
28087;DHT22;15392;48.912;8.380;2023-04-19T13:45:08;18.30;48.70
28087;DHT22;15392;48.912;8.380;2023-04-19T13:47:34;18.30;48.90
28087;DHT22;15392;48.912;8.380;2023-04-19T13:50:00;18.20;48.90
28087;DHT22;15392;48.912;8.380;2023-04-19T13:52:26;18.20;49.00
28087;DHT22;15392;48.912;8.380;2023-04-19T13:54:52;18.20;49.10
28087;DHT22;15392;48.912;8.380;2023-04-19T13:57:20;18.20;49.20
28087;DHT22;15392;48.912;8.380;2023-04-19T13:59:46;18.20;49.20
28087;DHT22;15392;48.912;8.380;2023-04-19T14:02:14;18.10;49.30
28087;DHT22;15392;48.912;8.380;2023-04-19T14:04:40;18.10;49.30
28087;DHT22;15392;48.912;8.380;2023-04-19T14:07:05;18.10;49.30
28087;DHT22;15392;48.912;8.380;2023-04-19T14:09:39;18.10;49.40
28087;DHT22;15392;48.912;8.380;2023-04-19T14:12:06;18.10;49.50
28087;DHT22;15392;48.912;8.380;2023-04-19T14:14:33;18.10;49.40
28087;DHT22;15392;48.912;8.380;2023-04-19T14:17:03;18.10;49.40
28087;DHT22;15392;48.912;8.380;2023-04-19T14:19:29;18.10;49.50
28087;DHT22;15392;48.912;8.380;2023-04-19T14:21:55;18.00;49.40
28087;DHT22;15392;48.912;8.380;2023-04-19T14:24:21;18.00;49.40
28087;DHT22;15392;48.912;8.380;2023-04-19T14:26:48;18.00;49.40
28087;DHT22;15392;48.912;8.380;2023-04-19T14:29:14;18.00;49.30
28087;DHT22;15392;48.912;8.380;2023-04-19T14:31:40;18.00;49.30
28087;DHT22;15392;48.912;8.380;2023-04-19T14:34:08;18.00;49.30
28087;DHT22;15392;48.912;8.380;2023-04-19T14:36:35;18.00;49.40
28087;DHT22;15392;48.912;8.380;2023-04-19T14:39:02;17.90;49.30
28087;DHT22;15392;48.912;8.380;2023-04-19T14:41:28;17.90;49.70
28087;DHT22;15392;48.912;8.380;2023-04-19T14:43:55;17.80;50.40
28087;DHT22;15392;48.912;8.380;2023-04-19T14:46:23;17.70;50.60
28087;DHT22;15392;48.912;8.380;2023-04-19T14:48:49;17.70;50.60
28087;DHT22;15392;48.912;8.380;2023-04-19T14:51:16;17.60;50.60
28087;DHT22;15392;48.912;8.380;2023-04-19T14:53:41;17.50;50.60
28087;DHT22;15392;48.912;8.380;2023-04-19T14:56:07;17.40;50.60
28087;DHT22;15392;48.912;8.380;2023-04-19T14:58:33;17.30;50.40
28087;DHT22;15392;48.912;8.380;2023-04-19T15:01:12;17.20;50.70
28087;DHT22;15392;48.912;8.380;2023-04-19T15:03:38;17.10;50.90
28087;DHT22;15392;48.912;8.380;2023-04-19T15:06:05;17.00;50.90
28087;DHT22;15392;48.912;8.380;2023-04-19T15:08:32;16.90;51.10
28087;DHT22;15392;48.912;8.380;2023-04-19T15:10:58;16.80;51.20
28087;DHT22;15392;48.912;8.380;2023-04-19T15:13:28;16.80;51.30
28087;DHT22;15392;48.912;8.380;2023-04-19T15:15:57;16.70;51.20
28087;DHT22;15392;48.912;8.380;2023-04-19T15:18:23;16.70;51.40
28087;DHT22;15392;48.912;8.380;2023-04-19T15:20:51;16.60;51.60
28087;DHT22;15392;48.912;8.380;2023-04-19T15:23:22;16.60;51.40
28087;DHT22;15392;48.912;8.380;2023-04-19T15:25:49;16.60;51.40
28087;DHT22;15392;48.912;8.380;2023-04-19T15:28:20;16.50;51.40
28087;DHT22;15392;48.912;8.380;2023-04-19T15:31:00;16.50;51.70
28087;DHT22;15392;48.912;8.380;2023-04-19T15:33:27;16.50;51.70
28087;DHT22;15392;48.912;8.380;2023-04-19T15:35:54;16.40;51.90
28087;DHT22;15392;48.912;8.380;2023-04-19T15:38:24;16.40;51.70
28087;DHT22;15392;48.912;8.380;2023-04-19T15:40:54;16.40;51.70
28087;DHT22;15392;48.912;8.380;2023-04-19T15:43:22;16.40;51.90
28087;DHT22;15392;48.912;8.380;2023-04-19T15:45:53;16.40;51.80
28087;DHT22;15392;48.912;8.380;2023-04-19T15:48:20;16.40;51.70
28087;DHT22;15392;48.912;8.380;2023-04-19T15:50:46;16.40;50.90
28087;DHT22;15392;48.912;8.380;2023-04-19T15:53:12;16.50;50.20
28087;DHT22;15392;48.912;8.380;2023-04-19T15:55:39;16.50;49.90
28087;DHT22;15392;48.912;8.380;2023-04-19T15:58:06;16.50;50.00
28087;DHT22;15392;48.912;8.380;2023-04-19T16:00:33;16.60;49.70
28087;DHT22;15392;48.912;8.380;2023-04-19T16:03:00;16.60;49.70
28087;DHT22;15392;48.912;8.380;2023-04-19T16:05:26;16.70;49.80
28087;DHT22;15392;48.912;8.380;2023-04-19T16:08:06;16.70;49.70
28087;DHT22;15392;48.912;8.380;2023-04-19T16:10:32;16.70;49.90
28087;DHT22;15392;48.912;8.380;2023-04-19T16:12:59;16.80;50.20
28087;DHT22;15392;48.912;8.380;2023-04-19T16:15:26;16.80;49.70
28087;DHT22;15392;48.912;8.380;2023-04-19T16:17:52;16.80;49.80
28087;DHT22;15392;48.912;8.380;2023-04-19T16:20:18;16.80;49.70
28087;DHT22;15392;48.912;8.380;2023-04-19T16:22:45;16.80;49.80
28087;DHT22;15392;48.912;8.380;2023-04-19T16:25:11;16.80;49.90
28087;DHT22;15392;48.912;8.380;2023-04-19T16:27:40;16.90;49.90
28087;DHT22;15392;48.912;8.380;2023-04-19T16:30:09;16.90;49.90